createdAt,value
2018-05-10T00:00:40.747Z,7.33
2018-05-10T00:03:07.111Z,7.80
2018-05-10T00:05:33.400Z,7.50
2018-05-10T00:07:59.657Z,7.57
2018-05-10T00:10:25.938Z,8.00
2018-05-10T00:12:52.239Z,6.87
2018-05-10T00:15:18.563Z,7.20
2018-05-10T00:17:44.833Z,6.80
2018-05-10T00:20:11.135Z,7.10
2018-05-10T00:22:38.196Z,6.60
2018-05-10T00:25:05.196Z,6.90
2018-05-10T00:27:32.245Z,6.90
2018-05-10T00:29:58.580Z,6.47
2018-05-10T00:32:24.887Z,7.70
2018-05-10T00:34:51.177Z,7.40
2018-05-10T00:37:18.110Z,8.30
2018-05-10T00:39:51.434Z,8.50
2018-05-10T00:42:18.491Z,8.50
2018-05-10T00:44:44.707Z,8.90
2018-05-10T00:47:11.745Z,8.97
2018-05-10T00:49:38.703Z,8.60
2018-05-10T00:52:04.978Z,9.47
2018-05-10T00:54:43.524Z,8.90
2018-05-10T00:57:10.542Z,8.90
2018-05-10T00:59:36.813Z,8.80
2018-05-10T01:02:03.867Z,8.97
2018-05-10T01:04:30.940Z,8.27
2018-05-10T01:06:57.219Z,7.83
2018-05-10T01:09:23.466Z,8.07
2018-05-10T01:11:50.404Z,8.50
2018-05-10T01:14:16.618Z,8.47
2018-05-10T01:16:42.944Z,8.80
2018-05-10T01:19:09.198Z,8.00
2018-05-10T01:21:36.170Z,8.33
2018-05-10T01:24:02.410Z,9.00
2018-05-10T01:26:28.633Z,8.80
2018-05-10T01:28:54.865Z,8.07
2018-05-10T01:31:21.098Z,8.27
2018-05-10T01:33:47.532Z,8.37
2018-05-10T01:36:14.760Z,9.20
2018-05-10T01:38:41.061Z,8.07
2018-05-10T01:41:08.128Z,8.73
2018-05-10T01:43:35.097Z,7.70
2018-05-10T01:46:01.538Z,8.83
2018-05-10T01:48:27.814Z,8.53
2018-05-10T01:50:54.081Z,8.33
2018-05-10T01:53:20.461Z,8.80
2018-05-10T01:55:46.656Z,8.93
2018-05-10T01:58:13.017Z,9.10
2018-05-10T02:00:39.258Z,8.53
2018-05-10T02:03:06.392Z,7.50
2018-05-10T02:05:32.725Z,8.43
2018-05-10T02:07:58.961Z,8.90
2018-05-10T02:10:25.299Z,7.90
2018-05-10T02:12:51.610Z,9.00
2018-05-10T02:15:17.951Z,8.10
2018-05-10T02:17:44.189Z,8.13
2018-05-10T02:20:10.451Z,8.00
2018-05-10T02:22:36.664Z,6.90
2018-05-10T02:25:03.738Z,8.40
2018-05-10T02:27:29.913Z,7.70
2018-05-10T02:29:56.286Z,7.60
2018-05-10T02:32:22.473Z,7.50
2018-05-10T02:34:48.756Z,7.40
2018-05-10T02:37:15.022Z,7.43
2018-05-10T02:39:41.323Z,7.40
2018-05-10T02:42:07.559Z,7.50
2018-05-10T02:44:33.817Z,7.60
2018-05-10T02:47:00.111Z,8.47
2018-05-10T02:49:26.430Z,7.80
2018-05-10T02:51:52.802Z,7.77
2018-05-10T02:54:18.975Z,8.77
2018-05-10T02:56:45.993Z,7.63
2018-05-10T02:59:12.218Z,8.70
2018-05-10T03:01:38.413Z,8.27
2018-05-10T03:04:04.700Z,7.87
2018-05-10T03:06:31.680Z,8.10
2018-05-10T03:08:58.023Z,9.13
2018-05-10T03:11:24.188Z,7.63
2018-05-10T03:13:50.449Z,7.43
2018-05-10T03:16:16.705Z,8.10
2018-05-10T03:18:42.991Z,7.53
2018-05-10T03:21:10.117Z,9.07
2018-05-10T03:23:36.422Z,7.83
2018-05-10T03:26:02.729Z,6.97
2018-05-10T03:28:29.021Z,7.50
2018-05-10T03:30:56.056Z,7.50
2018-05-10T03:33:22.379Z,8.53
2018-05-10T03:35:48.747Z,6.93
2018-05-10T03:38:14.976Z,7.93
2018-05-10T03:40:41.981Z,7.00
2018-05-10T03:43:08.286Z,7.67
2018-05-10T03:45:34.540Z,7.70
2018-05-10T03:48:00.843Z,7.33
2018-05-10T03:50:27.100Z,7.93
2018-05-10T03:52:53.337Z,7.63
2018-05-10T03:55:19.629Z,7.93
2018-05-10T03:57:45.961Z,7.23
2018-05-10T04:00:12.195Z,8.30
2018-05-10T04:02:47.524Z,7.20
2018-05-10T04:08:27.545Z,7.10
2018-05-10T04:11:06.974Z,7.00
2018-05-10T04:13:33.157Z,8.30
2018-05-10T04:15:59.591Z,8.17
2018-05-10T04:18:25.927Z,7.67
2018-05-10T04:20:52.155Z,7.80
2018-05-10T04:23:18.402Z,8.17
2018-05-10T04:25:44.725Z,8.30
2018-05-10T04:28:10.965Z,7.80
2018-05-10T04:30:37.150Z,7.77
2018-05-10T04:33:04.123Z,8.27
2018-05-10T04:35:30.334Z,9.07
2018-05-10T04:37:56.593Z,8.27
2018-05-10T04:40:22.900Z,8.03
2018-05-10T04:42:49.273Z,8.47
2018-05-10T04:45:15.608Z,8.17
2018-05-10T04:47:41.877Z,7.97
2018-05-10T04:50:08.045Z,8.30
2018-05-10T04:52:34.317Z,8.60
2018-05-10T04:55:01.371Z,7.53
2018-05-10T04:57:30.359Z,7.57
2018-05-10T05:00:11.200Z,7.67
2018-05-10T05:02:37.692Z,8.50
2018-05-10T05:05:07.477Z,8.87
2018-05-10T05:07:35.308Z,7.80
2018-05-10T05:10:01.750Z,8.60
2018-05-10T05:12:28.100Z,7.13
2018-05-10T05:14:55.104Z,7.03
2018-05-10T05:17:21.616Z,7.03
2018-05-10T05:19:48.162Z,7.40
2018-05-10T05:22:14.679Z,7.83
2018-05-10T05:24:41.836Z,7.30
2018-05-10T05:27:08.434Z,7.00
2018-05-10T05:29:34.893Z,7.47
2018-05-10T05:32:01.301Z,8.03
2018-05-10T05:34:27.898Z,8.43
2018-05-10T05:36:54.232Z,6.77
2018-05-10T05:39:20.450Z,7.50
2018-05-10T05:41:46.731Z,7.77
2018-05-10T05:44:13.713Z,8.23
2018-05-10T05:46:40.003Z,7.80
2018-05-10T05:49:06.293Z,7.47
2018-05-10T05:51:32.523Z,7.57
2018-05-10T05:53:58.777Z,8.40
2018-05-10T05:56:25.054Z,7.37
2018-05-10T05:58:51.294Z,7.23
2018-05-10T06:01:17.588Z,6.93
2018-05-10T06:03:44.678Z,8.50
2018-05-10T06:06:10.903Z,7.90
2018-05-10T06:08:37.178Z,8.47
2018-05-10T06:11:03.429Z,7.60
2018-05-10T06:13:30.447Z,7.00
2018-05-10T06:15:56.704Z,6.67
2018-05-10T06:18:23.782Z,7.37
2018-05-10T06:20:50.059Z,6.83
2018-05-10T06:23:16.391Z,6.20
2018-05-10T06:25:42.567Z,7.10
2018-05-10T06:28:08.767Z,7.00
2018-05-10T06:30:35.784Z,6.70
2018-05-10T06:33:02.040Z,7.27
2018-05-10T06:35:29.039Z,7.30
2018-05-10T06:37:55.228Z,7.67
2018-05-10T06:40:21.528Z,6.93
2018-05-10T06:42:47.809Z,7.07
2018-05-10T06:45:13.995Z,6.20
2018-05-10T06:47:40.275Z,6.43
2018-05-10T06:50:06.474Z,7.07
2018-05-10T06:52:32.744Z,7.73
2018-05-10T06:54:59.038Z,6.97
2018-05-10T06:57:25.452Z,6.70
2018-05-10T06:59:52.514Z,7.53
2018-05-10T07:02:18.761Z,7.20
2018-05-10T07:04:45.014Z,6.97
2018-05-10T07:07:11.247Z,7.33
2018-05-10T07:09:37.635Z,6.50
2018-05-10T07:12:03.834Z,7.30
2018-05-10T07:14:30.057Z,6.67
2018-05-10T07:16:56.344Z,7.47
2018-05-10T07:19:23.332Z,6.60
2018-05-10T07:21:49.584Z,7.83
2018-05-10T07:24:15.854Z,6.50
2018-05-10T07:26:42.135Z,7.43
2018-05-10T07:29:09.153Z,7.27
2018-05-10T07:31:35.441Z,7.10
2018-05-10T07:34:01.734Z,6.33
2018-05-10T07:36:28.820Z,6.97
2018-05-10T07:38:55.071Z,6.17
2018-05-10T07:41:22.081Z,5.30
2018-05-10T07:43:48.308Z,6.20
2018-05-10T07:46:14.636Z,6.83
2018-05-10T07:48:41.637Z,6.63
2018-05-10T07:51:07.988Z,5.33
2018-05-10T07:53:35.034Z,6.40
2018-05-10T07:56:01.481Z,5.90
2018-05-10T07:58:33.534Z,5.83
2018-05-10T08:00:59.929Z,5.20
2018-05-10T08:03:26.176Z,5.90
2018-05-10T08:05:52.868Z,6.03
2018-05-10T08:08:19.217Z,5.80
2018-05-10T08:10:45.452Z,4.97
2018-05-10T08:13:11.749Z,5.20
2018-05-10T08:15:38.686Z,4.57
2018-05-10T08:18:05.728Z,4.83
2018-05-10T08:20:32.691Z,4.80
2018-05-10T08:22:59.013Z,5.40
2018-05-10T08:25:25.351Z,5.10
2018-05-10T08:27:51.692Z,5.67
2018-05-10T08:30:18.022Z,5.00
2018-05-10T08:32:44.946Z,4.80
2018-05-10T08:35:11.977Z,4.90
2018-05-10T08:37:38.946Z,4.67
2018-05-10T08:40:05.164Z,4.80
2018-05-10T08:42:32.162Z,4.47
2018-05-10T08:44:58.561Z,3.90
2018-05-10T08:47:24.692Z,4.10
2018-05-10T08:49:50.953Z,3.97
2018-05-10T08:52:17.195Z,4.20
2018-05-10T08:54:43.488Z,4.20
2018-05-10T08:57:09.670Z,3.90
2018-05-10T08:59:36.795Z,3.80
2018-05-10T09:02:03.120Z,3.73
2018-05-10T09:04:29.468Z,3.60
2018-05-10T09:06:55.695Z,4.17
2018-05-10T09:09:21.879Z,4.03
2018-05-10T09:11:48.171Z,4.23
2018-05-10T09:14:15.301Z,4.27
2018-05-10T09:16:41.550Z,4.80
2018-05-10T09:19:08.550Z,4.10
2018-05-10T09:21:34.770Z,5.47
2018-05-10T09:24:01.097Z,5.20
2018-05-10T09:26:27.379Z,4.30
2018-05-10T09:28:53.567Z,3.90
2018-05-10T09:31:19.830Z,5.77
2018-05-10T09:33:46.130Z,5.07
2018-05-10T09:36:12.457Z,3.70
2018-05-10T09:38:38.658Z,3.80
2018-05-10T09:41:04.954Z,3.53
2018-05-10T09:43:31.974Z,4.33
2018-05-10T09:45:58.308Z,4.00
2018-05-10T09:48:24.592Z,4.20
2018-05-10T09:50:50.868Z,4.57
2018-05-10T09:53:17.151Z,4.20
2018-05-10T09:55:43.406Z,5.20
2018-05-10T09:58:09.653Z,4.43
2018-05-10T10:00:35.931Z,5.90
2018-05-10T10:03:02.272Z,4.90
2018-05-10T10:05:28.766Z,4.20
2018-05-10T10:07:55.769Z,4.30
2018-05-10T10:10:22.080Z,4.33
2018-05-10T10:12:48.334Z,3.93
2018-05-10T10:15:14.536Z,4.83
2018-05-10T10:17:40.862Z,4.27
2018-05-10T10:20:07.076Z,4.17
2018-05-10T10:22:34.109Z,4.97
2018-05-10T10:25:00.388Z,4.10
2018-05-10T10:27:26.749Z,4.00
2018-05-10T10:29:53.735Z,3.80
2018-05-10T10:32:20.750Z,3.20
2018-05-10T10:34:47.057Z,3.90
2018-05-10T10:37:13.286Z,3.90
2018-05-10T10:39:39.572Z,3.57
2018-05-10T10:42:06.641Z,3.73
2018-05-10T10:44:32.965Z,3.70
2018-05-10T10:46:59.179Z,3.83
2018-05-10T10:49:26.161Z,4.07
2018-05-10T10:51:52.367Z,3.40
2018-05-10T10:54:18.626Z,3.90
2018-05-10T10:56:44.949Z,4.50
2018-05-10T10:59:11.329Z,4.03
2018-05-10T11:01:38.835Z,3.80
2018-05-10T11:04:05.096Z,4.13
2018-05-10T11:06:31.348Z,3.73
2018-05-10T11:08:57.554Z,3.30
2018-05-10T11:11:23.838Z,4.50
2018-05-10T11:13:50.160Z,4.13
2018-05-10T11:16:18.521Z,3.40
2018-05-10T11:18:46.110Z,3.60
2018-05-10T11:21:12.468Z,3.50
2018-05-10T11:23:38.752Z,3.20
2018-05-10T11:26:05.771Z,3.13
2018-05-10T11:28:32.141Z,2.97
2018-05-10T11:30:58.432Z,3.17
2018-05-10T11:33:24.668Z,3.00
2018-05-10T11:35:50.884Z,3.67
2018-05-10T11:38:17.282Z,3.93
2018-05-10T11:40:43.627Z,7.13
2018-05-10T11:43:09.906Z,6.83
2018-05-10T11:45:37.034Z,7.23
2018-05-10T11:48:03.362Z,6.53
2018-05-10T11:50:29.592Z,6.30
2018-05-10T11:52:55.844Z,6.17
2018-05-10T11:55:22.973Z,6.03
2018-05-10T11:57:49.174Z,5.63
2018-05-10T12:00:15.575Z,6.80
2018-05-10T12:02:42.122Z,5.57
2018-05-10T12:05:08.466Z,5.60
2018-05-10T12:07:34.869Z,5.10
2018-05-10T12:10:01.306Z,4.97
2018-05-10T12:12:27.924Z,4.83
2018-05-10T12:14:54.989Z,4.00
2018-05-10T12:17:21.290Z,4.03
2018-05-10T12:19:47.820Z,4.80
2018-05-10T12:22:14.837Z,4.67
2018-05-10T12:24:48.776Z,4.30
2018-05-10T12:27:15.048Z,5.23
2018-05-10T12:29:41.337Z,5.03
2018-05-10T12:32:08.347Z,5.43
2018-05-10T12:34:34.604Z,5.23
2018-05-10T12:37:00.871Z,5.23
2018-05-10T12:39:27.202Z,6.23
2018-05-10T12:41:53.453Z,5.70
2018-05-10T12:44:19.753Z,7.23
2018-05-10T12:46:45.936Z,7.23
2018-05-10T12:49:12.202Z,6.03
2018-05-10T12:51:39.217Z,6.33
2018-05-10T12:54:05.478Z,5.60
2018-05-10T12:56:32.623Z,5.70
2018-05-10T12:58:58.988Z,6.90
2018-05-10T13:01:25.326Z,5.43
2018-05-10T13:03:51.557Z,5.00
2018-05-10T13:06:17.887Z,5.90
2018-05-10T13:08:44.118Z,4.90
2018-05-10T13:11:10.410Z,4.70
2018-05-10T13:13:36.755Z,4.30
2018-05-10T13:16:03.126Z,4.80
2018-05-10T13:18:29.402Z,4.60
2018-05-10T13:20:55.631Z,4.83
2018-05-10T13:23:22.641Z,5.40
2018-05-10T13:25:48.955Z,4.20
2018-05-10T13:28:15.214Z,3.20
2018-05-10T13:30:41.508Z,3.80
2018-05-10T13:33:07.796Z,3.17
2018-05-10T13:35:34.864Z,2.80
2018-05-10T13:38:01.176Z,2.30
2018-05-10T13:40:28.154Z,2.80
2018-05-10T13:42:54.454Z,2.97
2018-05-10T13:45:21.526Z,3.17
2018-05-10T13:47:47.813Z,3.10
2018-05-10T13:50:14.785Z,2.97
2018-05-10T13:52:41.020Z,2.67
2018-05-10T13:55:07.268Z,2.17
2018-05-10T13:57:33.565Z,2.60
2018-05-10T13:59:59.860Z,2.93
2018-05-10T14:02:26.104Z,1.73
2018-05-10T14:04:52.343Z,1.80
2018-05-10T14:07:19.347Z,2.03
2018-05-10T14:09:45.539Z,2.03
2018-05-10T14:12:11.842Z,2.20
2018-05-10T14:14:38.823Z,3.03
2018-05-10T14:17:05.039Z,1.97
2018-05-10T14:19:31.365Z,2.03
2018-05-10T14:21:57.711Z,2.33
2018-05-10T14:24:23.820Z,1.90
2018-05-10T14:26:50.904Z,2.20
2018-05-10T14:29:17.155Z,1.90
2018-05-10T14:31:43.474Z,2.30
2018-05-10T14:34:09.717Z,2.20
2018-05-10T14:36:35.976Z,2.33
2018-05-10T14:39:02.365Z,2.70
2018-05-10T14:41:28.660Z,2.37
2018-05-10T14:43:55.025Z,2.17
2018-05-10T14:46:21.360Z,1.87
2018-05-10T14:48:47.634Z,2.53
2018-05-10T14:51:14.676Z,2.40
2018-05-10T14:53:41.719Z,3.07
2018-05-10T14:56:08.779Z,2.50
2018-05-10T14:58:35.784Z,2.37
2018-05-10T15:01:02.123Z,2.27
2018-05-10T15:03:28.380Z,3.33
2018-05-10T15:05:55.339Z,2.20
2018-05-10T15:08:21.591Z,2.63
2018-05-10T15:10:47.854Z,3.30
2018-05-10T15:13:14.084Z,2.90
2018-05-10T15:15:40.390Z,3.07
2018-05-10T15:18:06.665Z,3.23
2018-05-10T15:20:33.637Z,2.80
2018-05-10T15:22:59.828Z,3.00
2018-05-10T15:25:26.221Z,2.83
2018-05-10T15:27:52.711Z,3.60
2018-05-10T15:30:19.732Z,3.00
2018-05-10T15:32:45.952Z,3.63
2018-05-10T15:35:13.136Z,3.07
2018-05-10T15:37:40.279Z,3.53
2018-05-10T15:40:07.251Z,3.10
2018-05-10T15:42:33.575Z,2.70
2018-05-10T15:44:59.900Z,3.90
2018-05-10T15:47:26.248Z,3.70
2018-05-10T15:49:52.562Z,3.13
2018-05-10T15:52:18.946Z,3.33
2018-05-10T15:54:45.229Z,3.50
2018-05-10T15:57:11.504Z,3.47
2018-05-10T15:59:37.740Z,3.87
2018-05-10T16:02:03.935Z,3.67
2018-05-10T16:04:30.227Z,4.30
2018-05-10T16:06:57.238Z,3.90
2018-05-10T16:09:23.531Z,3.30
2018-05-10T16:11:49.799Z,4.43
2018-05-10T16:14:16.112Z,4.10
2018-05-10T16:16:42.326Z,4.20
2018-05-10T16:19:08.635Z,3.97
2018-05-10T16:21:34.937Z,4.17
2018-05-10T16:24:01.183Z,4.60
2018-05-10T16:26:28.359Z,4.63
2018-05-10T16:28:54.586Z,4.40
2018-05-10T16:31:20.940Z,4.80
2018-05-10T16:33:47.205Z,4.97
2018-05-10T16:36:13.508Z,4.70
2018-05-10T16:38:39.717Z,4.67
2018-05-10T16:41:06.042Z,5.20
2018-05-10T16:43:32.419Z,5.93
2018-05-10T16:45:58.727Z,5.90
2018-05-10T16:48:25.083Z,5.53
2018-05-10T16:50:51.395Z,5.40
2018-05-10T16:53:18.767Z,5.43
2018-05-10T16:55:44.914Z,5.47
2018-05-10T16:58:12.088Z,5.80
2018-05-10T17:00:39.219Z,5.57
2018-05-10T17:03:06.204Z,6.27
2018-05-10T17:05:32.547Z,6.30
2018-05-10T17:07:58.878Z,6.30
2018-05-10T17:10:25.187Z,6.87
2018-05-10T17:12:51.451Z,6.70
2018-05-10T17:15:17.728Z,6.13
2018-05-10T17:17:44.085Z,7.20
2018-05-10T17:20:10.334Z,6.40
2018-05-10T17:22:36.762Z,7.67
2018-05-10T17:25:04.503Z,6.60
2018-05-10T17:27:30.851Z,8.87
2018-05-10T17:29:57.141Z,7.37
2018-05-10T17:32:23.411Z,6.70
2018-05-10T17:34:49.640Z,7.07
2018-05-10T17:37:15.898Z,7.50
2018-05-10T17:39:42.250Z,6.67
2018-05-10T17:42:09.343Z,6.70
2018-05-10T17:44:35.741Z,8.97
2018-05-10T17:47:02.100Z,8.00
2018-05-10T17:49:28.374Z,8.17
2018-05-10T17:51:55.426Z,8.27
2018-05-10T17:54:22.471Z,8.60
2018-05-10T17:56:48.749Z,9.33
2018-05-10T17:59:14.992Z,8.27
2018-05-10T18:01:41.290Z,8.90
2018-05-10T18:04:07.606Z,10.83
2018-05-10T18:06:34.584Z,10.83
2018-05-10T18:09:01.266Z,12.97
2018-05-10T18:11:27.760Z,14.00
2018-05-10T18:13:54.031Z,14.63
2018-05-10T18:16:20.285Z,15.90
2018-05-10T18:18:47.284Z,15.77
2018-05-10T18:21:13.638Z,17.30
2018-05-10T18:23:40.696Z,18.00
2018-05-10T18:26:07.073Z,18.17
2018-05-10T18:28:33.345Z,19.10
2018-05-10T18:30:59.669Z,19.23
2018-05-10T18:33:26.113Z,19.83
2018-05-10T18:35:52.369Z,20.20
2018-05-10T18:38:19.350Z,20.30
2018-05-10T18:40:45.783Z,20.90
2018-05-10T18:43:12.855Z,22.43
2018-05-10T18:45:39.164Z,20.20
2018-05-10T18:48:05.411Z,22.13
2018-05-10T18:50:31.654Z,20.90
2018-05-10T18:52:58.899Z,21.53
2018-05-10T18:55:25.109Z,21.77
2018-05-10T18:57:51.362Z,21.70
2018-05-10T19:00:17.632Z,23.83
2018-05-10T19:02:43.887Z,24.33
2018-05-10T19:05:10.133Z,24.90
2018-05-10T19:07:39.934Z,24.27
2018-05-10T19:10:06.276Z,23.70
2018-05-10T19:12:32.512Z,25.03
2018-05-10T19:14:58.801Z,23.87
2018-05-10T19:17:25.139Z,25.00
2018-05-10T19:19:51.432Z,23.20
2018-05-10T19:22:18.458Z,25.10
2018-05-10T19:24:44.762Z,23.40
2018-05-10T19:27:11.141Z,23.20
2018-05-10T19:29:38.232Z,24.10
2018-05-10T19:32:04.599Z,25.00
2018-05-10T19:34:30.899Z,24.27
2018-05-10T19:36:57.093Z,23.73
2018-05-10T19:39:24.103Z,25.20
2018-05-10T19:41:50.319Z,23.37
2018-05-10T19:44:16.613Z,24.97
2018-05-10T19:46:42.878Z,22.73
2018-05-10T19:49:09.167Z,23.07
2018-05-10T19:51:35.400Z,23.33
2018-05-10T19:54:01.665Z,22.87
2018-05-10T19:56:28.032Z,25.37
2018-05-10T19:58:55.079Z,24.53
2018-05-10T20:01:22.065Z,23.40
2018-05-10T20:03:48.391Z,24.60
2018-05-10T20:06:14.589Z,24.80
2018-05-10T20:08:41.695Z,25.57
2018-05-10T20:11:07.988Z,24.40
2018-05-10T20:13:34.179Z,23.97
2018-05-10T20:16:00.578Z,25.30
2018-05-10T20:18:26.894Z,25.43
2018-05-10T20:20:53.116Z,24.57
2018-05-10T20:23:19.404Z,23.73
2018-05-10T20:25:46.370Z,22.17
2018-05-10T20:28:13.449Z,23.10
2018-05-10T20:30:40.356Z,20.60
2018-05-10T20:33:07.378Z,21.23
2018-05-10T20:35:33.588Z,19.67
2018-05-10T20:37:59.852Z,19.70
2018-05-10T20:40:26.888Z,18.03
2018-05-10T20:42:53.952Z,16.93
2018-05-10T20:45:20.940Z,16.00
2018-05-10T20:47:47.169Z,15.20
2018-05-10T20:50:13.479Z,15.03
2018-05-10T20:52:39.778Z,15.97
2018-05-10T20:55:06.054Z,14.07
2018-05-10T20:57:32.379Z,14.50
2018-05-10T20:59:58.612Z,13.73
2018-05-10T21:02:24.919Z,13.80
2018-05-10T21:04:51.250Z,14.47
2018-05-10T21:07:17.466Z,13.40
2018-05-10T21:09:44.646Z,14.90
2018-05-10T21:12:23.205Z,12.87
2018-05-10T21:14:49.532Z,13.17
2018-05-10T21:17:16.550Z,15.50
2018-05-10T21:19:42.979Z,14.13
2018-05-10T21:22:09.252Z,13.57
2018-05-10T21:24:35.552Z,15.57
2018-05-10T21:27:01.884Z,14.27
2018-05-10T21:29:28.096Z,14.97
2018-05-10T21:31:54.362Z,16.20
2018-05-10T21:34:20.656Z,14.60
2018-05-10T21:36:46.888Z,16.10
2018-05-10T21:39:13.085Z,14.20
2018-05-10T21:41:40.131Z,18.37
2018-05-10T21:44:06.393Z,14.90
2018-05-10T21:46:32.666Z,15.37
2018-05-10T21:48:58.976Z,15.47
2018-05-10T21:51:25.235Z,16.10
2018-05-10T21:53:52.320Z,16.37
2018-05-10T21:56:18.666Z,15.07
2018-05-10T21:58:44.946Z,16.50
2018-05-10T22:01:11.972Z,15.77
2018-05-10T22:03:38.276Z,16.57
2018-05-10T22:06:04.544Z,16.70
2018-05-10T22:08:30.831Z,16.37
2018-05-10T22:10:57.146Z,17.80
2018-05-10T22:13:23.458Z,18.30
2018-05-10T22:15:49.807Z,17.67
2018-05-10T22:18:16.107Z,18.00
2018-05-10T22:20:42.427Z,17.17
2018-05-10T22:23:08.856Z,18.07
2018-05-10T22:25:35.864Z,18.50
2018-05-10T22:28:02.132Z,18.33
2018-05-10T22:30:28.424Z,17.73
2018-05-10T22:32:54.725Z,18.60
2018-05-10T22:35:21.015Z,19.07
2018-05-10T22:37:47.263Z,19.63
2018-05-10T22:40:14.316Z,18.40
2018-05-10T22:42:41.219Z,18.87
2018-05-10T22:45:07.497Z,17.77
2018-05-10T22:47:33.757Z,19.70
2018-05-10T22:49:59.994Z,18.17
2018-05-10T22:52:26.385Z,19.27
2018-05-10T22:54:52.700Z,18.93
2018-05-10T22:57:19.790Z,18.30
2018-05-10T22:59:46.153Z,19.40
2018-05-10T23:02:13.101Z,17.60
2018-05-10T23:04:39.318Z,17.83
2018-05-10T23:07:05.594Z,19.40
2018-05-10T23:09:32.601Z,20.00
2018-05-10T23:12:00.135Z,18.77
2018-05-10T23:14:26.437Z,20.20
2018-05-10T23:16:52.745Z,19.20
2018-05-10T23:19:18.974Z,19.30
2018-05-10T23:21:45.195Z,21.53
2018-05-10T23:24:11.548Z,19.70
2018-05-10T23:26:38.602Z,19.43
2018-05-10T23:29:05.602Z,19.20
2018-05-10T23:31:31.882Z,19.77
2018-05-10T23:33:58.150Z,19.57
2018-05-10T23:36:24.372Z,19.20
2018-05-10T23:38:50.643Z,17.87
2018-05-10T23:41:17.584Z,19.20
2018-05-10T23:43:43.827Z,20.33
2018-05-10T23:46:10.850Z,20.57
2018-05-10T23:48:37.079Z,19.43
2018-05-10T23:51:03.410Z,18.10
2018-05-10T23:53:29.668Z,19.93
2018-05-10T23:55:56.683Z,19.07
2018-05-10T23:58:23.002Z,19.50
